Durnacol Airport


Codes: FADH/
Name: Durnacol Airport
City: Durnacol
Country: South Africa
Elevation: 4317 ft.

Photos at Durnacol Airport


   Photos courtesy of SpottingLog. You can add your own sightings and photos by signing up for a free trial today.



No photos found.

Weather at Durnacol Airport


Time (UTC)DescriptionTempratureWindCloud coverageVisibilityPressureHumidity
23-May-2024 21:00Clear Sky12°C0 mph, W0%10000m1021hPa34%
24-May-2024 00:00Clear Sky10°C2 mph, W0%10000m1022hPa39%
24-May-2024 03:00Clear Sky8°C2 mph, W0%10000m1024hPa45%
24-May-2024 06:00Clear Sky12°C0 mph, SW0%10000m1025hPa36%
24-May-2024 09:00Clear Sky21°C4 mph, E0%10000m1023hPa23%
24-May-2024 12:00Clear Sky23°C7 mph, E0%10000m1020hPa22%
24-May-2024 15:00Clear Sky17°C4 mph, E0%10000m1021hPa46%
24-May-2024 18:00Clear Sky12°C4 mph, E0%10000m1025hPa89%
24-May-2024 21:00Clear Sky10°C2 mph, SE0%10000m1026hPa97%
25-May-2024 00:00Clear Sky9°C0 mph, SE9%10000m1026hPa98%
25-May-2024 03:00Scattered Clouds9°C0 mph, NW47%10000m1026hPa97%
25-May-2024 06:00Broken Clouds11°C2 mph, NW58%10000m1026hPa87%
25-May-2024 09:00Scattered Clouds19°C2 mph, N29%10000m1024hPa46%
25-May-2024 12:00Few Clouds22°C4 mph, E15%10000m1020hPa30%
25-May-2024 15:00Clear Sky17°C4 mph, E2%10000m1020hPa40%
25-May-2024 18:00Clear Sky11°C2 mph, E1%10000m1023hPa73%
25-May-2024 21:00Clear Sky9°C2 mph, N1%10000m1023hPa89%
26-May-2024 00:00Clear Sky8°C2 mph, NW0%10000m1023hPa75%
26-May-2024 03:00Clear Sky8°C2 mph, W0%10000m1022hPa55%
26-May-2024 06:00Clear Sky12°C0 mph, W0%10000m1023hPa38%
26-May-2024 09:00Clear Sky23°C4 mph, SW0%10000m1020hPa18%
26-May-2024 12:00Clear Sky25°C2 mph, SE0%10000m1017hPa13%
26-May-2024 15:00Clear Sky18°C4 mph, E0%10000m1018hPa22%
26-May-2024 18:00Clear Sky11°C4 mph, SE0%10000m1023hPa73%
26-May-2024 21:00Clear Sky9°C2 mph, SE1%10000m1025hPa95%
27-May-2024 00:00Scattered Clouds9°C2 mph, S29%10000m1026hPa94%
27-May-2024 03:00Overcast Clouds9°C0 mph, SW99%10000m1026hPa90%
27-May-2024 06:00Overcast Clouds10°C0 mph, NW88%10000m1028hPa81%
27-May-2024 09:00Clear Sky18°C2 mph, E4%10000m1026hPa44%
27-May-2024 12:00Clear Sky21°C4 mph, SE2%10000m1023hPa32%
27-May-2024 15:00Clear Sky16°C4 mph, E0%10000m1024hPa44%
27-May-2024 18:00Clear Sky10°C2 mph, E0%10000m1028hPa78%
27-May-2024 21:00Clear Sky9°C0 mph, N4%10000m1028hPa93%
28-May-2024 00:00Clear Sky7°C2 mph, NW6%10000m1028hPa94%
28-May-2024 03:00Overcast Clouds7°C2 mph, NW94%10000m1028hPa91%
28-May-2024 06:00Broken Clouds10°C2 mph, NW60%10000m1028hPa67%
28-May-2024 09:00Scattered Clouds21°C2 mph, NW38%10000m1024hPa26%
28-May-2024 12:00Few Clouds25°C7 mph, W21%10000m1020hPa15%
28-May-2024 15:00Scattered Clouds18°C4 mph, NW33%10000m1021hPa25%
28-May-2024 18:00Few Clouds13°C4 mph, NW19%10000m1023hPa32%